Main page
METAR-TAF:

METAR-TAF

Airports :

Åre Östersund Airport

Östersund-Frösön, Sweden

latitude: 63-11N, longitude: 014-30E, elevation: 376 m

Current weather observation

The report was made 33 minutes ago, at 22:50 UTC
Wind 7 kt from the North/Northwest
Temperature 14°C
Pressure 1009 hPa
Visibility: 6000 m
drizzle,

METAR: ESNZ 172250Z AUTO 33007KT 6000 DZ FEW005/// SCT029/// 14/// Q1009 RERA

Time: 01:23 (23:23 UTC)

Forecast

The report was made 4 hours and 33 minutes ago, at 18:50 UTC
Forecast valid from 17 at 18 UTC to 17 at 20 UTC
Wind 8 kt from the North
Visibility 10 km or more
Scattered clouds at a height of 400 ft
Overcast at a height of 1500 ft
light rain
Temporary
from 17 at 18 UTC to 17 at 20 UTC
Visibility: 2000 m
Broken clouds at a height of 400 ft
rain,

TAF: ESNZ 171850Z 1718/1720 36008KT 9999 -RA SCT004 OVC015 TEMPO 1718/1720 2000 RA BKN004

Weather observations and forecasts of more than 4000 airports (METAR and TAF reports).

The available stations are represented by yellow and red dots on the map.

Hover mouse over dot to see the name of the station.

Then click to see weather observations and forecasts.

To change the map : click on the green buttons with a black cross to zoom in, on the green button with a dash to zoom out, or on the green arrows for adjacent maps.


METAR-TAF: